sensor_id;sensor_type;location;lat;lon;timestamp;P1;P2;P0
67892;PMS7003;54688;52.376;16.744;2023-04-09T00:01:30;57;42;
67892;PMS7003;54688;52.376;16.744;2023-04-09T00:04:33;51;40;
67892;PMS7003;54688;52.376;16.744;2023-04-09T00:07:36;52;41;
67892;PMS7003;54688;52.376;16.744;2023-04-09T00:10:38;53;41;
67892;PMS7003;54688;52.376;16.744;2023-04-09T00:13:40;59;42;
67892;PMS7003;54688;52.376;16.744;2023-04-09T00:16:42;56;40;
67892;PMS7003;54688;52.376;16.744;2023-04-09T00:19:44;60;43;
67892;PMS7003;54688;52.376;16.744;2023-04-09T00:22:46;54;43;
67892;PMS7003;54688;52.376;16.744;2023-04-09T00:25:48;50;40;
67892;PMS7003;54688;52.376;16.744;2023-04-09T00:28:50;56;42;
67892;PMS7003;54688;52.376;16.744;2023-04-09T00:31:53;47;38;
67892;PMS7003;54688;52.376;16.744;2023-04-09T00:34:55;52;39;
67892;PMS7003;54688;52.376;16.744;2023-04-09T00:37:57;52;43;
67892;PMS7003;54688;52.376;16.744;2023-04-09T00:40:59;52;43;
67892;PMS7003;54688;52.376;16.744;2023-04-09T00:44:01;53;41;
67892;PMS7003;54688;52.376;16.744;2023-04-09T00:47:04;53;41;
67892;PMS7003;54688;52.376;16.744;2023-04-09T00:50:07;55;41;
67892;PMS7003;54688;52.376;16.744;2023-04-09T00:53:09;53;42;
67892;PMS7003;54688;52.376;16.744;2023-04-09T00:56:12;55;41;
67892;PMS7003;54688;52.376;16.744;2023-04-09T00:59:14;54;41;
67892;PMS7003;54688;52.376;16.744;2023-04-09T01:02:17;55;40;
67892;PMS7003;54688;52.376;16.744;2023-04-09T01:05:19;54;44;
67892;PMS7003;54688;52.376;16.744;2023-04-09T01:08:29;57;44;
67892;PMS7003;54688;52.376;16.744;2023-04-09T01:11:37;55;43;
67892;PMS7003;54688;52.376;16.744;2023-04-09T01:14:44;55;41;
67892;PMS7003;54688;52.376;16.744;2023-04-09T01:17:54;51;39;
67892;PMS7003;54688;52.376;16.744;2023-04-09T01:21:01;50;39;
67892;PMS7003;54688;52.376;16.744;2023-04-09T01:24:15;52;40;
67892;PMS7003;54688;52.376;16.744;2023-04-09T01:27:19;50;41;
67892;PMS7003;54688;52.376;16.744;2023-04-09T01:30:22;48;39;
67892;PMS7003;54688;52.376;16.744;2023-04-09T01:33:24;52;39;
67892;PMS7003;54688;52.376;16.744;2023-04-09T01:36:30;55;42;
67892;PMS7003;54688;52.376;16.744;2023-04-09T01:39:32;55;41;
67892;PMS7003;54688;52.376;16.744;2023-04-09T01:42:36;49;34;
67892;PMS7003;54688;52.376;16.744;2023-04-09T01:45:39;53;39;
67892;PMS7003;54688;52.376;16.744;2023-04-09T01:48:42;47;36;
67892;PMS7003;54688;52.376;16.744;2023-04-09T01:51:46;52;37;
67892;PMS7003;54688;52.376;16.744;2023-04-09T01:54:48;47;37;
67892;PMS7003;54688;52.376;16.744;2023-04-09T01:57:50;45;36;
67892;PMS7003;54688;52.376;16.744;2023-04-09T02:00:56;55;42;
67892;PMS7003;54688;52.376;16.744;2023-04-09T02:04:02;47;37;
67892;PMS7003;54688;52.376;16.744;2023-04-09T02:07:09;50;39;
67892;PMS7003;54688;52.376;16.744;2023-04-09T02:10:12;45;38;
67892;PMS7003;54688;52.376;16.744;2023-04-09T02:13:16;49;37;
67892;PMS7003;54688;52.376;16.744;2023-04-09T02:16:19;53;41;
67892;PMS7003;54688;52.376;16.744;2023-04-09T02:19:21;55;39;
67892;PMS7003;54688;52.376;16.744;2023-04-09T02:22:24;49;39;
67892;PMS7003;54688;52.376;16.744;2023-04-09T02:25:26;52;39;
67892;PMS7003;54688;52.376;16.744;2023-04-09T02:28:29;57;43;
67892;PMS7003;54688;52.376;16.744;2023-04-09T02:31:32;51;39;
67892;PMS7003;54688;52.376;16.744;2023-04-09T02:34:34;52;41;
67892;PMS7003;54688;52.376;16.744;2023-04-09T02:37:37;49;38;
67892;PMS7003;54688;52.376;16.744;2023-04-09T02:40:39;52;40;
67892;PMS7003;54688;52.376;16.744;2023-04-09T02:43:41;52;42;
67892;PMS7003;54688;52.376;16.744;2023-04-09T02:46:45;50;40;
67892;PMS7003;54688;52.376;16.744;2023-04-09T02:49:48;50;39;
67892;PMS7003;54688;52.376;16.744;2023-04-09T02:52:51;49;38;
67892;PMS7003;54688;52.376;16.744;2023-04-09T02:55:53;52;37;
67892;PMS7003;54688;52.376;16.744;2023-04-09T02:58:55;47;33;
67892;PMS7003;54688;52.376;16.744;2023-04-09T03:01:57;53;42;
67892;PMS7003;54688;52.376;16.744;2023-04-09T03:04:59;49;36;
67892;PMS7003;54688;52.376;16.744;2023-04-09T03:08:02;48;38;
67892;PMS7003;54688;52.376;16.744;2023-04-09T03:11:05;54;37;
67892;PMS7003;54688;52.376;16.744;2023-04-09T03:14:07;45;36;
67892;PMS7003;54688;52.376;16.744;2023-04-09T03:17:09;49;38;
67892;PMS7003;54688;52.376;16.744;2023-04-09T03:20:11;49;37;
67892;PMS7003;54688;52.376;16.744;2023-04-09T03:23:13;53;40;
67892;PMS7003;54688;52.376;16.744;2023-04-09T03:26:16;52;38;
67892;PMS7003;54688;52.376;16.744;2023-04-09T03:29:19;52;42;
67892;PMS7003;54688;52.376;16.744;2023-04-09T03:32:21;50;38;
67892;PMS7003;54688;52.376;16.744;2023-04-09T03:35:24;51;35;
67892;PMS7003;54688;52.376;16.744;2023-04-09T03:38:26;52;39;
67892;PMS7003;54688;52.376;16.744;2023-04-09T03:41:28;51;40;
67892;PMS7003;54688;52.376;16.744;2023-04-09T03:44:32;53;40;
67892;PMS7003;54688;52.376;16.744;2023-04-09T03:47:34;53;41;
67892;PMS7003;54688;52.376;16.744;2023-04-09T03:50:37;44;37;
67892;PMS7003;54688;52.376;16.744;2023-04-09T03:53:40;50;39;
67892;PMS7003;54688;52.376;16.744;2023-04-09T03:56:42;48;38;
67892;PMS7003;54688;52.376;16.744;2023-04-09T03:59:45;55;41;
67892;PMS7003;54688;52.376;16.744;2023-04-09T04:05:46;55;38;
67892;PMS7003;54688;52.376;16.744;2023-04-09T04:08:49;53;40;
67892;PMS7003;54688;52.376;16.744;2023-04-09T04:11:51;49;39;
67892;PMS7003;54688;52.376;16.744;2023-04-09T04:14:53;48;36;
67892;PMS7003;54688;52.376;16.744;2023-04-09T04:17:55;46;38;
67892;PMS7003;54688;52.376;16.744;2023-04-09T04:20:57;52;42;
67892;PMS7003;54688;52.376;16.744;2023-04-09T04:23:59;52;41;
67892;PMS7003;54688;52.376;16.744;2023-04-09T04:27:02;47;35;
67892;PMS7003;54688;52.376;16.744;2023-04-09T04:30:06;53;41;
67892;PMS7003;54688;52.376;16.744;2023-04-09T04:33:09;54;42;
67892;PMS7003;54688;52.376;16.744;2023-04-09T04:36:12;52;40;
67892;PMS7003;54688;52.376;16.744;2023-04-09T04:39:14;51;39;
67892;PMS7003;54688;52.376;16.744;2023-04-09T04:42:17;53;39;
67892;PMS7003;54688;52.376;16.744;2023-04-09T04:45:18;50;39;
67892;PMS7003;54688;52.376;16.744;2023-04-09T04:48:21;46;36;
67892;PMS7003;54688;52.376;16.744;2023-04-09T04:51:23;46;36;
67892;PMS7003;54688;52.376;16.744;2023-04-09T04:54:26;48;37;
67892;PMS7003;54688;52.376;16.744;2023-04-09T04:57:28;49;38;
67892;PMS7003;54688;52.376;16.744;2023-04-09T05:00:30;49;37;
67892;PMS7003;54688;52.376;16.744;2023-04-09T05:03:32;52;39;
67892;PMS7003;54688;52.376;16.744;2023-04-09T05:06:35;51;37;
67892;PMS7003;54688;52.376;16.744;2023-04-09T05:12:36;46;35;
67892;PMS7003;54688;52.376;16.744;2023-04-09T05:15:39;46;34;
67892;PMS7003;54688;52.376;16.744;2023-04-09T05:18:41;50;39;
67892;PMS7003;54688;52.376;16.744;2023-04-09T05:21:43;47;37;
67892;PMS7003;54688;52.376;16.744;2023-04-09T05:24:46;50;37;
67892;PMS7003;54688;52.376;16.744;2023-04-09T05:27:48;52;40;
67892;PMS7003;54688;52.376;16.744;2023-04-09T05:30:51;45;37;
67892;PMS7003;54688;52.376;16.744;2023-04-09T05:36:52;49;39;
67892;PMS7003;54688;52.376;16.744;2023-04-09T05:39:55;51;38;
67892;PMS7003;54688;52.376;16.744;2023-04-09T05:42:58;50;39;
67892;PMS7003;54688;52.376;16.744;2023-04-09T05:45:59;46;36;
67892;PMS7003;54688;52.376;16.744;2023-04-09T05:49:01;48;38;
67892;PMS7003;54688;52.376;16.744;2023-04-09T05:52:04;47;35;
67892;PMS7003;54688;52.376;16.744;2023-04-09T05:55:07;48;37;
67892;PMS7003;54688;52.376;16.744;2023-04-09T06:01:08;48;37;
67892;PMS7003;54688;52.376;16.744;2023-04-09T06:04:10;47;38;
67892;PMS7003;54688;52.376;16.744;2023-04-09T06:07:12;48;38;
67892;PMS7003;54688;52.376;16.744;2023-04-09T06:10:14;44;32;
67892;PMS7003;54688;52.376;16.744;2023-04-09T06:13:16;48;36;
67892;PMS7003;54688;52.376;16.744;2023-04-09T06:16:18;44;34;
67892;PMS7003;54688;52.376;16.744;2023-04-09T06:19:20;46;35;
67892;PMS7003;54688;52.376;16.744;2023-04-09T06:22:23;42;35;
67892;PMS7003;54688;52.376;16.744;2023-04-09T06:25:25;43;34;
67892;PMS7003;54688;52.376;16.744;2023-04-09T06:28:27;46;33;
67892;PMS7003;54688;52.376;16.744;2023-04-09T06:31:30;41;34;
67892;PMS7003;54688;52.376;16.744;2023-04-09T06:34:31;50;36;
67892;PMS7003;54688;52.376;16.744;2023-04-09T06:37:33;41;32;
67892;PMS7003;54688;52.376;16.744;2023-04-09T06:40:37;44;34;
67892;PMS7003;54688;52.376;16.744;2023-04-09T06:43:39;44;33;
67892;PMS7003;54688;52.376;16.744;2023-04-09T06:46:41;45;35;
67892;PMS7003;54688;52.376;16.744;2023-04-09T06:49:43;52;37;
67892;PMS7003;54688;52.376;16.744;2023-04-09T06:52:45;45;35;
67892;PMS7003;54688;52.376;16.744;2023-04-09T06:55:47;52;38;
67892;PMS7003;54688;52.376;16.744;2023-04-09T06:58:49;45;36;
67892;PMS7003;54688;52.376;16.744;2023-04-09T07:01:52;42;35;
67892;PMS7003;54688;52.376;16.744;2023-04-09T07:04:54;43;35;
67892;PMS7003;54688;52.376;16.744;2023-04-09T07:07:56;51;39;
67892;PMS7003;54688;52.376;16.744;2023-04-09T07:10:58;46;36;
67892;PMS7003;54688;52.376;16.744;2023-04-09T07:14:00;45;36;
67892;PMS7003;54688;52.376;16.744;2023-04-09T07:17:02;44;35;
67892;PMS7003;54688;52.376;16.744;2023-04-09T07:20:05;47;36;
67892;PMS7003;54688;52.376;16.744;2023-04-09T07:23:08;45;33;
67892;PMS7003;54688;52.376;16.744;2023-04-09T07:26:11;42;37;
67892;PMS7003;54688;52.376;16.744;2023-04-09T07:29:13;37;30;
67892;PMS7003;54688;52.376;16.744;2023-04-09T07:32:16;41;34;
67892;PMS7003;54688;52.376;16.744;2023-04-09T07:35:18;40;32;
67892;PMS7003;54688;52.376;16.744;2023-04-09T07:38:21;51;38;
67892;PMS7003;54688;52.376;16.744;2023-04-09T07:41:23;48;35;
67892;PMS7003;54688;52.376;16.744;2023-04-09T07:44:25;45;32;
67892;PMS7003;54688;52.376;16.744;2023-04-09T07:47:28;47;35;
67892;PMS7003;54688;52.376;16.744;2023-04-09T07:50:30;45;34;
67892;PMS7003;54688;52.376;16.744;2023-04-09T07:53:32;47;34;
67892;PMS7003;54688;52.376;16.744;2023-04-09T07:56:34;49;35;
67892;PMS7003;54688;52.376;16.744;2023-04-09T07:59:36;46;37;
67892;PMS7003;54688;52.376;16.744;2023-04-09T08:02:38;47;36;
67892;PMS7003;54688;52.376;16.744;2023-04-09T08:05:41;47;35;
67892;PMS7003;54688;52.376;16.744;2023-04-09T08:08:43;43;33;
67892;PMS7003;54688;52.376;16.744;2023-04-09T08:11:45;41;33;
67892;PMS7003;54688;52.376;16.744;2023-04-09T08:14:48;46;34;
67892;PMS7003;54688;52.376;16.744;2023-04-09T08:17:50;46;32;
67892;PMS7003;54688;52.376;16.744;2023-04-09T08:20:52;39;29;
67892;PMS7003;54688;52.376;16.744;2023-04-09T08:23:54;42;32;
67892;PMS7003;54688;52.376;16.744;2023-04-09T08:26:57;36;30;
67892;PMS7003;54688;52.376;16.744;2023-04-09T08:30:00;44;34;
67892;PMS7003;54688;52.376;16.744;2023-04-09T08:33:02;40;31;
67892;PMS7003;54688;52.376;16.744;2023-04-09T08:36:07;35;30;
67892;PMS7003;54688;52.376;16.744;2023-04-09T08:39:09;41;31;
67892;PMS7003;54688;52.376;16.744;2023-04-09T08:42:12;38;31;
67892;PMS7003;54688;52.376;16.744;2023-04-09T08:45:15;39;32;
67892;PMS7003;54688;52.376;16.744;2023-04-09T08:48:18;35;30;
67892;PMS7003;54688;52.376;16.744;2023-04-09T08:51:23;39;30;
67892;PMS7003;54688;52.376;16.744;2023-04-09T08:54:25;34;32;
67892;PMS7003;54688;52.376;16.744;2023-04-09T08:57:28;39;30;
67892;PMS7003;54688;52.376;16.744;2023-04-09T09:00:30;37;33;
67892;PMS7003;54688;52.376;16.744;2023-04-09T09:03:54;33;28;
67892;PMS7003;54688;52.376;16.744;2023-04-09T09:07:05;37;32;
67892;PMS7003;54688;52.376;16.744;2023-04-09T09:10:07;30;25;
67892;PMS7003;54688;52.376;16.744;2023-04-09T09:13:16;45;36;
67892;PMS7003;54688;52.376;16.744;2023-04-09T09:16:18;37;32;
67892;PMS7003;54688;52.376;16.744;2023-04-09T09:19:27;41;32;
67892;PMS7003;54688;52.376;16.744;2023-04-09T09:22:47;41;32;
67892;PMS7003;54688;52.376;16.744;2023-04-09T09:25:49;36;30;
67892;PMS7003;54688;52.376;16.744;2023-04-09T09:28:52;36;30;
67892;PMS7003;54688;52.376;16.744;2023-04-09T09:31:55;38;32;
67892;PMS7003;54688;52.376;16.744;2023-04-09T09:34:59;31;29;
67892;PMS7003;54688;52.376;16.744;2023-04-09T09:38:02;37;32;
67892;PMS7003;54688;52.376;16.744;2023-04-09T09:41:15;40;30;
67892;PMS7003;54688;52.376;16.744;2023-04-09T09:44:30;35;29;
67892;PMS7003;54688;52.376;16.744;2023-04-09T09:47:33;37;27;
67892;PMS7003;54688;52.376;16.744;2023-04-09T09:50:37;38;31;
67892;PMS7003;54688;52.376;16.744;2023-04-09T09:53:42;37;30;
67892;PMS7003;54688;52.376;16.744;2023-04-09T09:56:45;32;29;
67892;PMS7003;54688;52.376;16.744;2023-04-09T09:59:50;41;32;
67892;PMS7003;54688;52.376;16.744;2023-04-09T10:02:57;36;28;
67892;PMS7003;54688;52.376;16.744;2023-04-09T10:06:01;34;30;
67892;PMS7003;54688;52.376;16.744;2023-04-09T10:09:04;36;29;
67892;PMS7003;54688;52.376;16.744;2023-04-09T10:12:08;26;20;
67892;PMS7003;54688;52.376;16.744;2023-04-09T10:15:11;35;30;
67892;PMS7003;54688;52.376;16.744;2023-04-09T10:18:14;25;25;
67892;PMS7003;54688;52.376;16.744;2023-04-09T10:21:25;30;23;
67892;PMS7003;54688;52.376;16.744;2023-04-09T10:24:29;22;21;
67892;PMS7003;54688;52.376;16.744;2023-04-09T10:27:32;26;21;
67892;PMS7003;54688;52.376;16.744;2023-04-09T10:30:35;28;21;
67892;PMS7003;54688;52.376;16.744;2023-04-09T10:33:38;23;20;
67892;PMS7003;54688;52.376;16.744;2023-04-09T10:36:41;30;24;
67892;PMS7003;54688;52.376;16.744;2023-04-09T10:39:45;32;26;
67892;PMS7003;54688;52.376;16.744;2023-04-09T10:42:48;30;25;
67892;PMS7003;54688;52.376;16.744;2023-04-09T10:45:50;28;21;
67892;PMS7003;54688;52.376;16.744;2023-04-09T10:49:08;29;20;
67892;PMS7003;54688;52.376;16.744;2023-04-09T10:52:11;21;17;
67892;PMS7003;54688;52.376;16.744;2023-04-09T10:55:47;26;23;
67892;PMS7003;54688;52.376;16.744;2023-04-09T10:58:50;28;19;
67892;PMS7003;54688;52.376;16.744;2023-04-09T11:01:52;19;19;
67892;PMS7003;54688;52.376;16.744;2023-04-09T11:05:03;24;21;
67892;PMS7003;54688;52.376;16.744;2023-04-09T11:08:09;32;21;
67892;PMS7003;54688;52.376;16.744;2023-04-09T11:11:30;39;28;
67892;PMS7003;54688;52.376;16.744;2023-04-09T11:14:32;30;22;
67892;PMS7003;54688;52.376;16.744;2023-04-09T11:17:35;33;29;
67892;PMS7003;54688;52.376;16.744;2023-04-09T11:20:37;28;25;
67892;PMS7003;54688;52.376;16.744;2023-04-09T11:23:39;27;25;
67892;PMS7003;54688;52.376;16.744;2023-04-09T11:26:47;26;22;
67892;PMS7003;54688;52.376;16.744;2023-04-09T11:29:54;28;25;
67892;PMS7003;54688;52.376;16.744;2023-04-09T11:32:56;30;28;
67892;PMS7003;54688;52.376;16.744;2023-04-09T11:35:58;25;23;
67892;PMS7003;54688;52.376;16.744;2023-04-09T11:39:01;27;23;
67892;PMS7003;54688;52.376;16.744;2023-04-09T11:42:03;26;23;
67892;PMS7003;54688;52.376;16.744;2023-04-09T11:45:08;29;26;
67892;PMS7003;54688;52.376;16.744;2023-04-09T11:48:10;26;23;
67892;PMS7003;54688;52.376;16.744;2023-04-09T11:51:12;26;23;
67892;PMS7003;54688;52.376;16.744;2023-04-09T11:54:15;28;25;
67892;PMS7003;54688;52.376;16.744;2023-04-09T11:57:17;34;26;
67892;PMS7003;54688;52.376;16.744;2023-04-09T12:00:19;25;23;
67892;PMS7003;54688;52.376;16.744;2023-04-09T12:03:28;32;27;
67892;PMS7003;54688;52.376;16.744;2023-04-09T12:06:31;23;22;
67892;PMS7003;54688;52.376;16.744;2023-04-09T12:09:45;27;23;
67892;PMS7003;54688;52.376;16.744;2023-04-09T12:12:47;28;24;
67892;PMS7003;54688;52.376;16.744;2023-04-09T12:15:49;26;23;
67892;PMS7003;54688;52.376;16.744;2023-04-09T12:18:52;25;21;
67892;PMS7003;54688;52.376;16.744;2023-04-09T12:21:54;24;18;
67892;PMS7003;54688;52.376;16.744;2023-04-09T12:24:57;23;19;
67892;PMS7003;54688;52.376;16.744;2023-04-09T12:27:59;22;19;
67892;PMS7003;54688;52.376;16.744;2023-04-09T12:31:01;26;20;
67892;PMS7003;54688;52.376;16.744;2023-04-09T12:34:03;24;19;
67892;PMS7003;54688;52.376;16.744;2023-04-09T12:37:06;26;19;
67892;PMS7003;54688;52.376;16.744;2023-04-09T12:40:08;29;19;
67892;PMS7003;54688;52.376;16.744;2023-04-09T12:43:11;20;20;
67892;PMS7003;54688;52.376;16.744;2023-04-09T12:46:13;25;23;
67892;PMS7003;54688;52.376;16.744;2023-04-09T12:49:15;24;17;
67892;PMS7003;54688;52.376;16.744;2023-04-09T12:52:18;27;21;
67892;PMS7003;54688;52.376;16.744;2023-04-09T12:55:21;25;20;
67892;PMS7003;54688;52.376;16.744;2023-04-09T12:58:23;20;18;
67892;PMS7003;54688;52.376;16.744;2023-04-09T13:01:26;25;22;
67892;PMS7003;54688;52.376;16.744;2023-04-09T13:04:28;22;21;
67892;PMS7003;54688;52.376;16.744;2023-04-09T13:07:30;22;20;
67892;PMS7003;54688;52.376;16.744;2023-04-09T13:10:32;25;17;
67892;PMS7003;54688;52.376;16.744;2023-04-09T13:13:34;24;20;
67892;PMS7003;54688;52.376;16.744;2023-04-09T13:16:36;26;22;
67892;PMS7003;54688;52.376;16.744;2023-04-09T13:19:38;21;19;
67892;PMS7003;54688;52.376;16.744;2023-04-09T13:22:40;29;23;
67892;PMS7003;54688;52.376;16.744;2023-04-09T13:25:42;28;21;
67892;PMS7003;54688;52.376;16.744;2023-04-09T13:28:44;22;20;
67892;PMS7003;54688;52.376;16.744;2023-04-09T13:31:47;25;25;
67892;PMS7003;54688;52.376;16.744;2023-04-09T13:34:50;28;24;
67892;PMS7003;54688;52.376;16.744;2023-04-09T13:37:52;22;21;
67892;PMS7003;54688;52.376;16.744;2023-04-09T13:40:54;26;21;
67892;PMS7003;54688;52.376;16.744;2023-04-09T13:43:57;24;18;
67892;PMS7003;54688;52.376;16.744;2023-04-09T13:46:59;22;16;
67892;PMS7003;54688;52.376;16.744;2023-04-09T13:50:01;21;20;
67892;PMS7003;54688;52.376;16.744;2023-04-09T13:53:04;23;18;
67892;PMS7003;54688;52.376;16.744;2023-04-09T13:56:06;31;24;
67892;PMS7003;54688;52.376;16.744;2023-04-09T13:59:08;25;18;
67892;PMS7003;54688;52.376;16.744;2023-04-09T14:02:10;22;20;
67892;PMS7003;54688;52.376;16.744;2023-04-09T14:05:12;26;25;
67892;PMS7003;54688;52.376;16.744;2023-04-09T14:08:15;27;25;
67892;PMS7003;54688;52.376;16.744;2023-04-09T14:11:17;29;26;
67892;PMS7003;54688;52.376;16.744;2023-04-09T14:14:19;24;19;
67892;PMS7003;54688;52.376;16.744;2023-04-09T14:17:20;26;22;
67892;PMS7003;54688;52.376;16.744;2023-04-09T14:20:23;27;24;
67892;PMS7003;54688;52.376;16.744;2023-04-09T14:23:25;25;20;
67892;PMS7003;54688;52.376;16.744;2023-04-09T14:26:28;25;23;
67892;PMS7003;54688;52.376;16.744;2023-04-09T14:29:31;22;19;
67892;PMS7003;54688;52.376;16.744;2023-04-09T14:32:33;22;22;
67892;PMS7003;54688;52.376;16.744;2023-04-09T14:35:35;24;19;
67892;PMS7003;54688;52.376;16.744;2023-04-09T14:38:37;22;19;
67892;PMS7003;54688;52.376;16.744;2023-04-09T14:41:40;24;20;
67892;PMS7003;54688;52.376;16.744;2023-04-09T14:44:42;26;23;
67892;PMS7003;54688;52.376;16.744;2023-04-09T14:47:44;25;19;
67892;PMS7003;54688;52.376;16.744;2023-04-09T14:50:47;25;19;
67892;PMS7003;54688;52.376;16.744;2023-04-09T14:53:49;20;15;
67892;PMS7003;54688;52.376;16.744;2023-04-09T14:56:52;24;20;
67892;PMS7003;54688;52.376;16.744;2023-04-09T14:59:54;25;23;
67892;PMS7003;54688;52.376;16.744;2023-04-09T15:02:57;22;21;
67892;PMS7003;54688;52.376;16.744;2023-04-09T15:05:59;20;18;
67892;PMS7003;54688;52.376;16.744;2023-04-09T15:09:01;20;18;
67892;PMS7003;54688;52.376;16.744;2023-04-09T15:12:03;20;20;
67892;PMS7003;54688;52.376;16.744;2023-04-09T15:15:06;20;19;
67892;PMS7003;54688;52.376;16.744;2023-04-09T15:18:09;25;21;
67892;PMS7003;54688;52.376;16.744;2023-04-09T15:21:11;24;18;
67892;PMS7003;54688;52.376;16.744;2023-04-09T15:24:13;23;16;
67892;PMS7003;54688;52.376;16.744;2023-04-09T15:27:15;19;19;
67892;PMS7003;54688;52.376;16.744;2023-04-09T15:30:18;20;19;
67892;PMS7003;54688;52.376;16.744;2023-04-09T15:33:19;23;19;
67892;PMS7003;54688;52.376;16.744;2023-04-09T15:36:22;21;21;
67892;PMS7003;54688;52.376;16.744;2023-04-09T15:39:24;22;21;
67892;PMS7003;54688;52.376;16.744;2023-04-09T15:42:26;23;21;
67892;PMS7003;54688;52.376;16.744;2023-04-09T15:45:28;27;23;
67892;PMS7003;54688;52.376;16.744;2023-04-09T15:48:31;34;27;
67892;PMS7003;54688;52.376;16.744;2023-04-09T15:51:33;22;20;
67892;PMS7003;54688;52.376;16.744;2023-04-09T15:54:35;28;23;
67892;PMS7003;54688;52.376;16.744;2023-04-09T15:57:38;19;17;
67892;PMS7003;54688;52.376;16.744;2023-04-09T16:00:40;28;19;
67892;PMS7003;54688;52.376;16.744;2023-04-09T16:03:42;22;20;
67892;PMS7003;54688;52.376;16.744;2023-04-09T16:06:44;22;19;
67892;PMS7003;54688;52.376;16.744;2023-04-09T16:09:47;21;21;
67892;PMS7003;54688;52.376;16.744;2023-04-09T16:12:49;22;19;
67892;PMS7003;54688;52.376;16.744;2023-04-09T16:15:51;23;20;
67892;PMS7003;54688;52.376;16.744;2023-04-09T16:18:53;18;16;
67892;PMS7003;54688;52.376;16.744;2023-04-09T16:21:55;20;15;
67892;PMS7003;54688;52.376;16.744;2023-04-09T16:24:58;26;23;
67892;PMS7003;54688;52.376;16.744;2023-04-09T16:28:00;25;21;
67892;PMS7003;54688;52.376;16.744;2023-04-09T16:31:02;23;18;
67892;PMS7003;54688;52.376;16.744;2023-04-09T16:34:04;31;27;
67892;PMS7003;54688;52.376;16.744;2023-04-09T16:37:06;19;17;
67892;PMS7003;54688;52.376;16.744;2023-04-09T16:40:09;22;22;
67892;PMS7003;54688;52.376;16.744;2023-04-09T16:43:11;20;20;
67892;PMS7003;54688;52.376;16.744;2023-04-09T16:46:13;27;25;
67892;PMS7003;54688;52.376;16.744;2023-04-09T16:49:15;26;25;
67892;PMS7003;54688;52.376;16.744;2023-04-09T16:52:17;22;19;
67892;PMS7003;54688;52.376;16.744;2023-04-09T16:55:19;21;20;
67892;PMS7003;54688;52.376;16.744;2023-04-09T16:58:21;22;21;
67892;PMS7003;54688;52.376;16.744;2023-04-09T17:01:23;19;19;
67892;PMS7003;54688;52.376;16.744;2023-04-09T17:04:25;23;19;
67892;PMS7003;54688;52.376;16.744;2023-04-09T17:07:28;27;22;
67892;PMS7003;54688;52.376;16.744;2023-04-09T17:10:31;29;28;
67892;PMS7003;54688;52.376;16.744;2023-04-09T17:13:33;26;22;
67892;PMS7003;54688;52.376;16.744;2023-04-09T17:16:35;22;19;
67892;PMS7003;54688;52.376;16.744;2023-04-09T17:19:38;28;27;
67892;PMS7003;54688;52.376;16.744;2023-04-09T17:22:41;28;21;
67892;PMS7003;54688;52.376;16.744;2023-04-09T17:25:43;40;30;
67892;PMS7003;54688;52.376;16.744;2023-04-09T17:28:46;26;22;
67892;PMS7003;54688;52.376;16.744;2023-04-09T17:31:48;32;30;
67892;PMS7003;54688;52.376;16.744;2023-04-09T17:34:50;36;32;
67892;PMS7003;54688;52.376;16.744;2023-04-09T17:37:53;44;33;
67892;PMS7003;54688;52.376;16.744;2023-04-09T17:40:56;30;28;
67892;PMS7003;54688;52.376;16.744;2023-04-09T17:43:58;44;33;
67892;PMS7003;54688;52.376;16.744;2023-04-09T17:50:00;34;29;
67892;PMS7003;54688;52.376;16.744;2023-04-09T17:53:02;26;25;
67892;PMS7003;54688;52.376;16.744;2023-04-09T17:56:05;38;27;
67892;PMS7003;54688;52.376;16.744;2023-04-09T17:59:07;34;30;
67892;PMS7003;54688;52.376;16.744;2023-04-09T18:02:09;39;32;
67892;PMS7003;54688;52.376;16.744;2023-04-09T18:05:13;41;34;
67892;PMS7003;54688;52.376;16.744;2023-04-09T18:08:14;41;32;
67892;PMS7003;54688;52.376;16.744;2023-04-09T18:11:17;43;33;
67892;PMS7003;54688;52.376;16.744;2023-04-09T18:14:19;44;36;
67892;PMS7003;54688;52.376;16.744;2023-04-09T18:17:21;38;30;
67892;PMS7003;54688;52.376;16.744;2023-04-09T18:20:23;43;34;
67892;PMS7003;54688;52.376;16.744;2023-04-09T18:23:25;30;26;
67892;PMS7003;54688;52.376;16.744;2023-04-09T18:26:28;22;22;
67892;PMS7003;54688;52.376;16.744;2023-04-09T18:29:30;37;32;
67892;PMS7003;54688;52.376;16.744;2023-04-09T18:32:32;33;28;
67892;PMS7003;54688;52.376;16.744;2023-04-09T18:35:35;36;30;
67892;PMS7003;54688;52.376;16.744;2023-04-09T18:38:37;35;28;
67892;PMS7003;54688;52.376;16.744;2023-04-09T18:41:40;32;29;
67892;PMS7003;54688;52.376;16.744;2023-04-09T18:44:43;30;27;
67892;PMS7003;54688;52.376;16.744;2023-04-09T18:47:46;44;33;
67892;PMS7003;54688;52.376;16.744;2023-04-09T18:50:48;39;32;
67892;PMS7003;54688;52.376;16.744;2023-04-09T18:53:50;40;34;
67892;PMS7003;54688;52.376;16.744;2023-04-09T18:56:52;39;31;
67892;PMS7003;54688;52.376;16.744;2023-04-09T18:59:55;41;32;
67892;PMS7003;54688;52.376;16.744;2023-04-09T19:02:58;44;36;
67892;PMS7003;54688;52.376;16.744;2023-04-09T19:05:59;35;31;
67892;PMS7003;54688;52.376;16.744;2023-04-09T19:09:02;38;33;
67892;PMS7003;54688;52.376;16.744;2023-04-09T19:12:04;48;35;
67892;PMS7003;54688;52.376;16.744;2023-04-09T19:15:09;36;32;
67892;PMS7003;54688;52.376;16.744;2023-04-09T19:18:11;37;27;
67892;PMS7003;54688;52.376;16.744;2023-04-09T19:21:13;36;30;
67892;PMS7003;54688;52.376;16.744;2023-04-09T19:24:15;39;31;
67892;PMS7003;54688;52.376;16.744;2023-04-09T19:27:17;39;33;
67892;PMS7003;54688;52.376;16.744;2023-04-09T19:30:19;38;33;
67892;PMS7003;54688;52.376;16.744;2023-04-09T19:33:22;36;28;
67892;PMS7003;54688;52.376;16.744;2023-04-09T19:36:24;37;31;
67892;PMS7003;54688;52.376;16.744;2023-04-09T19:39:27;33;29;
67892;PMS7003;54688;52.376;16.744;2023-04-09T19:42:30;33;30;
67892;PMS7003;54688;52.376;16.744;2023-04-09T19:45:32;36;30;
67892;PMS7003;54688;52.376;16.744;2023-04-09T19:48:36;40;32;
67892;PMS7003;54688;52.376;16.744;2023-04-09T19:51:38;33;26;
67892;PMS7003;54688;52.376;16.744;2023-04-09T19:54:40;38;33;
67892;PMS7003;54688;52.376;16.744;2023-04-09T19:57:42;37;30;
67892;PMS7003;54688;52.376;16.744;2023-04-09T20:00:45;33;28;
67892;PMS7003;54688;52.376;16.744;2023-04-09T20:03:47;33;26;
67892;PMS7003;54688;52.376;16.744;2023-04-09T20:06:50;33;31;
67892;PMS7003;54688;52.376;16.744;2023-04-09T20:09:53;35;31;